sensor_id;sensor_type;location;lat;lon;timestamp;P1;durP1;ratioP1;P2;durP2;ratioP2
59786;SDS011;45672;51.612;5.536;2023-04-19T00:02:02;13.48;;;10.75;;
59786;SDS011;45672;51.612;5.536;2023-04-19T00:04:27;16.65;;;13.38;;
59786;SDS011;45672;51.612;5.536;2023-04-19T00:06:53;14.90;;;11.93;;
59786;SDS011;45672;51.612;5.536;2023-04-19T00:09:19;14.07;;;11.90;;
59786;SDS011;45672;51.612;5.536;2023-04-19T00:11:44;15.18;;;13.25;;
59786;SDS011;45672;51.612;5.536;2023-04-19T00:14:09;18.35;;;12.85;;
59786;SDS011;45672;51.612;5.536;2023-04-19T00:16:34;18.65;;;13.35;;
59786;SDS011;45672;51.612;5.536;2023-04-19T00:19:00;16.30;;;12.98;;
59786;SDS011;45672;51.612;5.536;2023-04-19T00:21:26;15.68;;;13.38;;
59786;SDS011;45672;51.612;5.536;2023-04-19T00:23:51;16.23;;;13.32;;
59786;SDS011;45672;51.612;5.536;2023-04-19T00:26:18;16.73;;;12.93;;
59786;SDS011;45672;51.612;5.536;2023-04-19T00:28:43;16.17;;;12.82;;
59786;SDS011;45672;51.612;5.536;2023-04-19T00:31:08;17.65;;;13.38;;
59786;SDS011;45672;51.612;5.536;2023-04-19T00:33:34;16.92;;;13.15;;
59786;SDS011;45672;51.612;5.536;2023-04-19T00:35:59;16.88;;;13.57;;
59786;SDS011;45672;51.612;5.536;2023-04-19T00:38:25;16.10;;;13.05;;
59786;SDS011;45672;51.612;5.536;2023-04-19T00:40:50;16.48;;;13.27;;
59786;SDS011;45672;51.612;5.536;2023-04-19T00:43:16;17.55;;;12.15;;
59786;SDS011;45672;51.612;5.536;2023-04-19T00:45:42;15.88;;;12.57;;
59786;SDS011;45672;51.612;5.536;2023-04-19T00:48:08;17.08;;;13.35;;
59786;SDS011;45672;51.612;5.536;2023-04-19T00:50:34;17.55;;;13.38;;
59786;SDS011;45672;51.612;5.536;2023-04-19T00:53:00;15.88;;;13.35;;
59786;SDS011;45672;51.612;5.536;2023-04-19T00:55:25;17.45;;;12.45;;
59786;SDS011;45672;51.612;5.536;2023-04-19T00:57:51;18.05;;;13.65;;
59786;SDS011;45672;51.612;5.536;2023-04-19T01:00:16;19.90;;;13.52;;
59786;SDS011;45672;51.612;5.536;2023-04-19T01:02:42;14.95;;;12.82;;
59786;SDS011;45672;51.612;5.536;2023-04-19T01:05:07;16.00;;;12.80;;
59786;SDS011;45672;51.612;5.536;2023-04-19T01:07:33;17.60;;;12.75;;
59786;SDS011;45672;51.612;5.536;2023-04-19T01:09:59;14.88;;;12.70;;
59786;SDS011;45672;51.612;5.536;2023-04-19T01:12:24;18.52;;;13.73;;
59786;SDS011;45672;51.612;5.536;2023-04-19T01:14:49;14.65;;;11.48;;
59786;SDS011;45672;51.612;5.536;2023-04-19T01:17:15;17.88;;;13.65;;
59786;SDS011;45672;51.612;5.536;2023-04-19T01:19:40;17.70;;;11.98;;
59786;SDS011;45672;51.612;5.536;2023-04-19T01:22:06;16.75;;;13.98;;
59786;SDS011;45672;51.612;5.536;2023-04-19T01:24:32;18.52;;;13.30;;
59786;SDS011;45672;51.612;5.536;2023-04-19T01:26:58;17.42;;;13.45;;
59786;SDS011;45672;51.612;5.536;2023-04-19T01:29:23;17.05;;;14.02;;
59786;SDS011;45672;51.612;5.536;2023-04-19T01:31:48;17.85;;;13.93;;
59786;SDS011;45672;51.612;5.536;2023-04-19T01:34:17;16.08;;;13.02;;
59786;SDS011;45672;51.612;5.536;2023-04-19T01:36:47;16.38;;;12.80;;
59786;SDS011;45672;51.612;5.536;2023-04-19T01:39:12;20.05;;;13.90;;
59786;SDS011;45672;51.612;5.536;2023-04-19T01:41:38;19.40;;;13.75;;
59786;SDS011;45672;51.612;5.536;2023-04-19T01:44:03;19.67;;;12.73;;
59786;SDS011;45672;51.612;5.536;2023-04-19T01:46:28;15.18;;;12.15;;
59786;SDS011;45672;51.612;5.536;2023-04-19T01:48:54;18.92;;;14.20;;
59786;SDS011;45672;51.612;5.536;2023-04-19T01:51:19;17.45;;;12.82;;
59786;SDS011;45672;51.612;5.536;2023-04-19T01:53:45;19.23;;;14.05;;
59786;SDS011;45672;51.612;5.536;2023-04-19T01:56:16;22.63;;;13.68;;
59786;SDS011;45672;51.612;5.536;2023-04-19T01:58:41;16.08;;;13.23;;
59786;SDS011;45672;51.612;5.536;2023-04-19T02:01:07;17.00;;;13.93;;
59786;SDS011;45672;51.612;5.536;2023-04-19T02:03:36;19.55;;;13.90;;
59786;SDS011;45672;51.612;5.536;2023-04-19T02:06:01;19.30;;;14.73;;
59786;SDS011;45672;51.612;5.536;2023-04-19T02:08:27;20.10;;;14.90;;
59786;SDS011;45672;51.612;5.536;2023-04-19T02:10:52;24.25;;;14.20;;
59786;SDS011;45672;51.612;5.536;2023-04-19T02:13:17;14.35;;;9.77;;
59786;SDS011;45672;51.612;5.536;2023-04-19T02:15:43;20.45;;;14.80;;
59786;SDS011;45672;51.612;5.536;2023-04-19T02:18:08;17.63;;;14.02;;
59786;SDS011;45672;51.612;5.536;2023-04-19T02:20:33;17.10;;;13.55;;
59786;SDS011;45672;51.612;5.536;2023-04-19T02:22:59;20.00;;;14.00;;
59786;SDS011;45672;51.612;5.536;2023-04-19T02:25:24;18.65;;;14.50;;
59786;SDS011;45672;51.612;5.536;2023-04-19T02:27:49;18.70;;;14.05;;
59786;SDS011;45672;51.612;5.536;2023-04-19T02:30:15;19.25;;;14.55;;
59786;SDS011;45672;51.612;5.536;2023-04-19T02:32:40;24.05;;;14.98;;
59786;SDS011;45672;51.612;5.536;2023-04-19T02:35:05;24.02;;;13.90;;
59786;SDS011;45672;51.612;5.536;2023-04-19T02:37:31;17.67;;;13.52;;
59786;SDS011;45672;51.612;5.536;2023-04-19T02:39:56;18.55;;;13.75;;
59786;SDS011;45672;51.612;5.536;2023-04-19T02:42:22;17.55;;;13.30;;
59786;SDS011;45672;51.612;5.536;2023-04-19T02:44:47;17.80;;;13.05;;
59786;SDS011;45672;51.612;5.536;2023-04-19T02:47:12;19.65;;;13.65;;
59786;SDS011;45672;51.612;5.536;2023-04-19T02:49:38;15.38;;;11.43;;
59786;SDS011;45672;51.612;5.536;2023-04-19T02:52:05;18.17;;;13.63;;
59786;SDS011;45672;51.612;5.536;2023-04-19T02:54:31;19.35;;;12.32;;
59786;SDS011;45672;51.612;5.536;2023-04-19T02:56:57;14.18;;;12.13;;
59786;SDS011;45672;51.612;5.536;2023-04-19T02:59:22;16.48;;;13.48;;
59786;SDS011;45672;51.612;5.536;2023-04-19T03:01:48;15.68;;;13.10;;
59786;SDS011;45672;51.612;5.536;2023-04-19T03:04:13;16.50;;;12.68;;
59786;SDS011;45672;51.612;5.536;2023-04-19T03:06:38;14.82;;;11.68;;
59786;SDS011;45672;51.612;5.536;2023-04-19T03:09:03;15.88;;;11.82;;
59786;SDS011;45672;51.612;5.536;2023-04-19T03:11:29;14.13;;;11.73;;
59786;SDS011;45672;51.612;5.536;2023-04-19T03:13:54;15.68;;;11.57;;
59786;SDS011;45672;51.612;5.536;2023-04-19T03:16:20;15.43;;;12.55;;
59786;SDS011;45672;51.612;5.536;2023-04-19T03:18:45;18.30;;;12.93;;
59786;SDS011;45672;51.612;5.536;2023-04-19T03:21:11;21.80;;;12.65;;
59786;SDS011;45672;51.612;5.536;2023-04-19T03:23:36;16.23;;;12.80;;
59786;SDS011;45672;51.612;5.536;2023-04-19T03:26:01;16.77;;;12.05;;
59786;SDS011;45672;51.612;5.536;2023-04-19T03:28:27;18.58;;;12.82;;
59786;SDS011;45672;51.612;5.536;2023-04-19T03:30:52;18.13;;;12.90;;
59786;SDS011;45672;51.612;5.536;2023-04-19T03:33:17;18.60;;;12.50;;
59786;SDS011;45672;51.612;5.536;2023-04-19T03:35:43;15.77;;;11.77;;
59786;SDS011;45672;51.612;5.536;2023-04-19T03:38:08;16.33;;;10.38;;
59786;SDS011;45672;51.612;5.536;2023-04-19T03:40:35;17.27;;;12.65;;
59786;SDS011;45672;51.612;5.536;2023-04-19T03:43:02;15.90;;;12.88;;
59786;SDS011;45672;51.612;5.536;2023-04-19T03:45:27;13.55;;;11.38;;
59786;SDS011;45672;51.612;5.536;2023-04-19T03:47:52;16.20;;;11.77;;
59786;SDS011;45672;51.612;5.536;2023-04-19T03:50:17;15.57;;;13.18;;
59786;SDS011;45672;51.612;5.536;2023-04-19T03:52:43;14.45;;;11.32;;
59786;SDS011;45672;51.612;5.536;2023-04-19T03:55:08;15.48;;;11.73;;
59786;SDS011;45672;51.612;5.536;2023-04-19T03:57:34;14.73;;;11.65;;
59786;SDS011;45672;51.612;5.536;2023-04-19T04:00:00;17.02;;;10.77;;
59786;SDS011;45672;51.612;5.536;2023-04-19T04:02:25;17.23;;;12.30;;
59786;SDS011;45672;51.612;5.536;2023-04-19T04:04:53;16.55;;;11.45;;
59786;SDS011;45672;51.612;5.536;2023-04-19T04:07:19;14.32;;;10.95;;
59786;SDS011;45672;51.612;5.536;2023-04-19T04:09:45;14.88;;;10.55;;
59786;SDS011;45672;51.612;5.536;2023-04-19T04:12:11;14.15;;;10.68;;
59786;SDS011;45672;51.612;5.536;2023-04-19T04:14:37;15.32;;;10.98;;
59786;SDS011;45672;51.612;5.536;2023-04-19T04:17:02;11.48;;;8.70;;
59786;SDS011;45672;51.612;5.536;2023-04-19T04:19:27;13.30;;;10.38;;
59786;SDS011;45672;51.612;5.536;2023-04-19T04:21:53;12.48;;;10.30;;
59786;SDS011;45672;51.612;5.536;2023-04-19T04:24:18;11.48;;;9.23;;
59786;SDS011;45672;51.612;5.536;2023-04-19T04:26:44;10.98;;;8.75;;
59786;SDS011;45672;51.612;5.536;2023-04-19T04:29:09;14.32;;;10.02;;
59786;SDS011;45672;51.612;5.536;2023-04-19T04:31:34;11.23;;;9.85;;
59786;SDS011;45672;51.612;5.536;2023-04-19T04:34:00;15.02;;;9.70;;
59786;SDS011;45672;51.612;5.536;2023-04-19T04:36:26;13.50;;;9.25;;
59786;SDS011;45672;51.612;5.536;2023-04-19T04:38:53;10.52;;;8.60;;
59786;SDS011;45672;51.612;5.536;2023-04-19T04:41:19;11.50;;;8.80;;
59786;SDS011;45672;51.612;5.536;2023-04-19T04:43:44;11.57;;;9.18;;
59786;SDS011;45672;51.612;5.536;2023-04-19T04:46:13;17.15;;;8.55;;
59786;SDS011;45672;51.612;5.536;2023-04-19T04:48:38;10.27;;;8.60;;
59786;SDS011;45672;51.612;5.536;2023-04-19T04:51:04;12.35;;;9.07;;
59786;SDS011;45672;51.612;5.536;2023-04-19T04:53:29;13.75;;;9.30;;
59786;SDS011;45672;51.612;5.536;2023-04-19T04:55:54;12.38;;;9.18;;
59786;SDS011;45672;51.612;5.536;2023-04-19T04:58:20;11.95;;;9.55;;
59786;SDS011;45672;51.612;5.536;2023-04-19T05:00:45;12.88;;;9.35;;
59786;SDS011;45672;51.612;5.536;2023-04-19T05:03:11;10.27;;;9.15;;
59786;SDS011;45672;51.612;5.536;2023-04-19T05:05:36;10.20;;;9.15;;
59786;SDS011;45672;51.612;5.536;2023-04-19T05:08:02;14.88;;;11.13;;
59786;SDS011;45672;51.612;5.536;2023-04-19T05:10:27;10.55;;;9.00;;
59786;SDS011;45672;51.612;5.536;2023-04-19T05:12:52;10.32;;;9.32;;
59786;SDS011;45672;51.612;5.536;2023-04-19T05:15:18;10.57;;;9.20;;
59786;SDS011;45672;51.612;5.536;2023-04-19T05:17:44;10.60;;;9.10;;
59786;SDS011;45672;51.612;5.536;2023-04-19T05:20:09;13.60;;;9.18;;
59786;SDS011;45672;51.612;5.536;2023-04-19T05:22:35;10.90;;;8.40;;
59786;SDS011;45672;51.612;5.536;2023-04-19T05:25:00;12.30;;;8.65;;
59786;SDS011;45672;51.612;5.536;2023-04-19T05:27:26;11.13;;;8.52;;
59786;SDS011;45672;51.612;5.536;2023-04-19T05:29:51;9.27;;;7.55;;
59786;SDS011;45672;51.612;5.536;2023-04-19T05:32:17;11.93;;;8.40;;
59786;SDS011;45672;51.612;5.536;2023-04-19T05:34:43;10.43;;;8.75;;
59786;SDS011;45672;51.612;5.536;2023-04-19T05:37:08;10.02;;;7.85;;
59786;SDS011;45672;51.612;5.536;2023-04-19T05:39:33;12.18;;;9.02;;
59786;SDS011;45672;51.612;5.536;2023-04-19T05:41:58;8.88;;;7.90;;
59786;SDS011;45672;51.612;5.536;2023-04-19T05:44:24;9.98;;;8.30;;
59786;SDS011;45672;51.612;5.536;2023-04-19T05:46:49;8.23;;;6.68;;
59786;SDS011;45672;51.612;5.536;2023-04-19T05:49:15;9.52;;;7.68;;
59786;SDS011;45672;51.612;5.536;2023-04-19T05:51:40;11.77;;;7.70;;
59786;SDS011;45672;51.612;5.536;2023-04-19T05:54:05;9.63;;;7.80;;
59786;SDS011;45672;51.612;5.536;2023-04-19T05:56:31;13.35;;;8.23;;
59786;SDS011;45672;51.612;5.536;2023-04-19T05:58:56;9.07;;;7.70;;
59786;SDS011;45672;51.612;5.536;2023-04-19T06:01:22;9.02;;;6.78;;
59786;SDS011;45672;51.612;5.536;2023-04-19T06:03:48;8.18;;;6.80;;
59786;SDS011;45672;51.612;5.536;2023-04-19T06:06:17;10.27;;;7.18;;
59786;SDS011;45672;51.612;5.536;2023-04-19T06:08:43;19.10;;;9.43;;
59786;SDS011;45672;51.612;5.536;2023-04-19T06:11:08;11.15;;;7.70;;
59786;SDS011;45672;51.612;5.536;2023-04-19T06:13:33;10.60;;;6.50;;
59786;SDS011;45672;51.612;5.536;2023-04-19T06:15:59;8.23;;;7.05;;
59786;SDS011;45672;51.612;5.536;2023-04-19T06:18:25;7.03;;;6.43;;
59786;SDS011;45672;51.612;5.536;2023-04-19T06:20:51;8.88;;;7.00;;
59786;SDS011;45672;51.612;5.536;2023-04-19T06:23:17;11.75;;;6.95;;
59786;SDS011;45672;51.612;5.536;2023-04-19T06:25:42;6.88;;;5.78;;
59786;SDS011;45672;51.612;5.536;2023-04-19T06:28:08;7.97;;;6.55;;
59786;SDS011;45672;51.612;5.536;2023-04-19T06:30:33;7.97;;;6.72;;
59786;SDS011;45672;51.612;5.536;2023-04-19T06:32:58;16.25;;;6.60;;
59786;SDS011;45672;51.612;5.536;2023-04-19T06:35:23;6.10;;;5.50;;
59786;SDS011;45672;51.612;5.536;2023-04-19T06:37:49;9.02;;;6.60;;
59786;SDS011;45672;51.612;5.536;2023-04-19T06:40:14;8.68;;;7.07;;
59786;SDS011;45672;51.612;5.536;2023-04-19T06:42:39;9.43;;;6.70;;
59786;SDS011;45672;51.612;5.536;2023-04-19T06:45:05;6.60;;;6.00;;
59786;SDS011;45672;51.612;5.536;2023-04-19T06:47:31;6.03;;;5.40;;
59786;SDS011;45672;51.612;5.536;2023-04-19T06:49:56;7.45;;;6.35;;
59786;SDS011;45672;51.612;5.536;2023-04-19T06:52:21;9.90;;;6.00;;
59786;SDS011;45672;51.612;5.536;2023-04-19T06:54:47;7.05;;;5.35;;
59786;SDS011;45672;51.612;5.536;2023-04-19T06:57:13;10.55;;;6.53;;
59786;SDS011;45672;51.612;5.536;2023-04-19T06:59:39;11.57;;;5.65;;
59786;SDS011;45672;51.612;5.536;2023-04-19T07:02:05;11.70;;;5.47;;
59786;SDS011;45672;51.612;5.536;2023-04-19T07:04:30;5.55;;;5.00;;
59786;SDS011;45672;51.612;5.536;2023-04-19T07:06:55;5.82;;;5.32;;
59786;SDS011;45672;51.612;5.536;2023-04-19T07:09:21;7.85;;;6.03;;
59786;SDS011;45672;51.612;5.536;2023-04-19T07:11:46;6.65;;;5.85;;
59786;SDS011;45672;51.612;5.536;2023-04-19T07:14:12;6.45;;;5.85;;
59786;SDS011;45672;51.612;5.536;2023-04-19T07:16:37;6.40;;;5.80;;
59786;SDS011;45672;51.612;5.536;2023-04-19T07:19:03;6.22;;;5.60;;
59786;SDS011;45672;51.612;5.536;2023-04-19T07:21:28;7.68;;;5.95;;
59786;SDS011;45672;51.612;5.536;2023-04-19T07:23:57;6.85;;;5.65;;
59786;SDS011;45672;51.612;5.536;2023-04-19T07:26:22;6.80;;;5.45;;
59786;SDS011;45672;51.612;5.536;2023-04-19T07:28:48;6.30;;;5.68;;
59786;SDS011;45672;51.612;5.536;2023-04-19T07:31:14;7.18;;;5.65;;
59786;SDS011;45672;51.612;5.536;2023-04-19T07:33:40;7.88;;;5.20;;
59786;SDS011;45672;51.612;5.536;2023-04-19T07:36:07;7.03;;;5.53;;
59786;SDS011;45672;51.612;5.536;2023-04-19T07:38:35;9.05;;;5.43;;
59786;SDS011;45672;51.612;5.536;2023-04-19T07:41:01;9.05;;;5.32;;
59786;SDS011;45672;51.612;5.536;2023-04-19T07:43:28;7.88;;;5.00;;
59786;SDS011;45672;51.612;5.536;2023-04-19T07:45:54;7.97;;;5.13;;
59786;SDS011;45672;51.612;5.536;2023-04-19T07:48:19;6.32;;;5.28;;
59786;SDS011;45672;51.612;5.536;2023-04-19T07:50:44;5.93;;;5.03;;
59786;SDS011;45672;51.612;5.536;2023-04-19T07:53:10;5.90;;;5.13;;
59786;SDS011;45672;51.612;5.536;2023-04-19T07:55:36;7.07;;;5.47;;
59786;SDS011;45672;51.612;5.536;2023-04-19T07:58:01;9.95;;;5.25;;
59786;SDS011;45672;51.612;5.536;2023-04-19T08:00:26;8.95;;;5.00;;
59786;SDS011;45672;51.612;5.536;2023-04-19T08:02:53;6.18;;;4.82;;
59786;SDS011;45672;51.612;5.536;2023-04-19T08:05:21;7.07;;;4.95;;
59786;SDS011;45672;51.612;5.536;2023-04-19T08:07:46;6.13;;;5.53;;
59786;SDS011;45672;51.612;5.536;2023-04-19T08:10:12;6.63;;;5.00;;
59786;SDS011;45672;51.612;5.536;2023-04-19T08:12:37;15.48;;;5.22;;
59786;SDS011;45672;51.612;5.536;2023-04-19T08:15:03;6.97;;;5.30;;
59786;SDS011;45672;51.612;5.536;2023-04-19T08:17:31;5.82;;;4.88;;
59786;SDS011;45672;51.612;5.536;2023-04-19T08:19:56;7.88;;;5.63;;
59786;SDS011;45672;51.612;5.536;2023-04-19T08:22:22;6.68;;;5.13;;
59786;SDS011;45672;51.612;5.536;2023-04-19T08:24:50;11.05;;;5.20;;
59786;SDS011;45672;51.612;5.536;2023-04-19T08:27:16;5.13;;;4.60;;
59786;SDS011;45672;51.612;5.536;2023-04-19T08:29:41;8.80;;;4.95;;
59786;SDS011;45672;51.612;5.536;2023-04-19T08:32:07;7.28;;;4.80;;
59786;SDS011;45672;51.612;5.536;2023-04-19T08:34:35;7.85;;;4.43;;
59786;SDS011;45672;51.612;5.536;2023-04-19T08:37:01;11.13;;;4.60;;
59786;SDS011;45672;51.612;5.536;2023-04-19T08:39:27;4.88;;;4.30;;
59786;SDS011;45672;51.612;5.536;2023-04-19T08:41:52;7.65;;;3.97;;
59786;SDS011;45672;51.612;5.536;2023-04-19T08:44:20;6.30;;;4.20;;
59786;SDS011;45672;51.612;5.536;2023-04-19T08:46:47;6.30;;;3.70;;
59786;SDS011;45672;51.612;5.536;2023-04-19T08:49:14;5.55;;;3.65;;
59786;SDS011;45672;51.612;5.536;2023-04-19T08:51:40;7.47;;;3.72;;
59786;SDS011;45672;51.612;5.536;2023-04-19T08:54:07;4.57;;;3.80;;
59786;SDS011;45672;51.612;5.536;2023-04-19T08:56:33;5.65;;;3.90;;
59786;SDS011;45672;51.612;5.536;2023-04-19T08:58:59;3.75;;;3.40;;
59786;SDS011;45672;51.612;5.536;2023-04-19T09:01:24;6.05;;;4.45;;
59786;SDS011;45672;51.612;5.536;2023-04-19T09:03:50;4.20;;;3.42;;
59786;SDS011;45672;51.612;5.536;2023-04-19T09:06:15;8.52;;;3.30;;
59786;SDS011;45672;51.612;5.536;2023-04-19T09:08:41;5.75;;;3.67;;
59786;SDS011;45672;51.612;5.536;2023-04-19T09:11:06;6.05;;;3.25;;
59786;SDS011;45672;51.612;5.536;2023-04-19T09:13:32;7.85;;;3.67;;
59786;SDS011;45672;51.612;5.536;2023-04-19T09:16:00;8.18;;;3.70;;
59786;SDS011;45672;51.612;5.536;2023-04-19T09:18:25;5.25;;;3.40;;
59786;SDS011;45672;51.612;5.536;2023-04-19T09:20:51;4.38;;;3.60;;
59786;SDS011;45672;51.612;5.536;2023-04-19T09:23:23;4.35;;;3.67;;
59786;SDS011;45672;51.612;5.536;2023-04-19T09:25:54;3.72;;;3.42;;
59786;SDS011;45672;51.612;5.536;2023-04-19T09:30:47;10.20;;;3.00;;
59786;SDS011;45672;51.612;5.536;2023-04-19T09:33:12;4.50;;;3.08;;
59786;SDS011;45672;51.612;5.536;2023-04-19T09:35:39;12.07;;;3.50;;
59786;SDS011;45672;51.612;5.536;2023-04-19T09:38:09;8.45;;;3.55;;
59786;SDS011;45672;51.612;5.536;2023-04-19T09:40:35;5.93;;;2.92;;
59786;SDS011;45672;51.612;5.536;2023-04-19T09:43:01;6.05;;;3.20;;
59786;SDS011;45672;51.612;5.536;2023-04-19T09:45:38;3.88;;;3.00;;
59786;SDS011;45672;51.612;5.536;2023-04-19T09:48:08;4.85;;;2.97;;
59786;SDS011;45672;51.612;5.536;2023-04-19T09:50:35;5.55;;;3.20;;
59786;SDS011;45672;51.612;5.536;2023-04-19T09:53:01;3.00;;;2.75;;
59786;SDS011;45672;51.612;5.536;2023-04-19T09:55:27;7.30;;;2.95;;
59786;SDS011;45672;51.612;5.536;2023-04-19T09:57:53;5.20;;;2.90;;
59786;SDS011;45672;51.612;5.536;2023-04-19T10:00:18;4.82;;;2.90;;
59786;SDS011;45672;51.612;5.536;2023-04-19T10:02:45;6.65;;;2.97;;
59786;SDS011;45672;51.612;5.536;2023-04-19T10:05:18;8.65;;;2.90;;
59786;SDS011;45672;51.612;5.536;2023-04-19T10:07:46;2.97;;;2.67;;
59786;SDS011;45672;51.612;5.536;2023-04-19T10:10:13;3.15;;;2.33;;
59786;SDS011;45672;51.612;5.536;2023-04-19T10:12:40;3.42;;;2.17;;
59786;SDS011;45672;51.612;5.536;2023-04-19T10:15:07;4.07;;;1.65;;
59786;SDS011;45672;51.612;5.536;2023-04-19T10:17:34;7.47;;;2.03;;
59786;SDS011;45672;51.612;5.536;2023-04-19T10:20:04;1.63;;;1.52;;
59786;SDS011;45672;51.612;5.536;2023-04-19T10:22:33;6.35;;;1.83;;
59786;SDS011;45672;51.612;5.536;2023-04-19T10:25:08;5.00;;;2.03;;
59786;SDS011;45672;51.612;5.536;2023-04-19T10:27:37;8.40;;;1.83;;
59786;SDS011;45672;51.612;5.536;2023-04-19T10:30:03;7.90;;;1.60;;
59786;SDS011;45672;51.612;5.536;2023-04-19T10:32:38;8.18;;;1.80;;
59786;SDS011;45672;51.612;5.536;2023-04-19T10:35:18;5.10;;;1.80;;
59786;SDS011;45672;51.612;5.536;2023-04-19T10:38:00;5.22;;;2.00;;
59786;SDS011;45672;51.612;5.536;2023-04-19T10:43:13;2.33;;;1.60;;
59786;SDS011;45672;51.612;5.536;2023-04-19T10:45:40;2.00;;;1.63;;
59786;SDS011;45672;51.612;5.536;2023-04-19T10:48:06;4.32;;;2.08;;
59786;SDS011;45672;51.612;5.536;2023-04-19T10:51:13;3.38;;;1.95;;
59786;SDS011;45672;51.612;5.536;2023-04-19T10:53:47;2.78;;;2.17;;
59786;SDS011;45672;51.612;5.536;2023-04-19T10:56:13;3.53;;;2.10;;
59786;SDS011;45672;51.612;5.536;2023-04-19T11:01:44;3.72;;;2.10;;
59786;SDS011;45672;51.612;5.536;2023-04-19T11:12:00;2.47;;;2.10;;
59786;SDS011;45672;51.612;5.536;2023-04-19T11:14:34;3.88;;;2.10;;
59786;SDS011;45672;51.612;5.536;2023-04-19T11:17:02;2.40;;;2.20;;
59786;SDS011;45672;51.612;5.536;2023-04-19T11:19:37;2.88;;;2.50;;
59786;SDS011;45672;51.612;5.536;2023-04-19T11:22:02;3.45;;;2.50;;
59786;SDS011;45672;51.612;5.536;2023-04-19T11:24:28;5.55;;;2.60;;
59786;SDS011;45672;51.612;5.536;2023-04-19T11:26:54;5.03;;;2.00;;
59786;SDS011;45672;51.612;5.536;2023-04-19T11:29:20;3.97;;;2.28;;
59786;SDS011;45672;51.612;5.536;2023-04-19T11:31:46;3.63;;;2.45;;
59786;SDS011;45672;51.612;5.536;2023-04-19T11:34:11;4.72;;;2.60;;
59786;SDS011;45672;51.612;5.536;2023-04-19T11:36:46;3.78;;;2.70;;
59786;SDS011;45672;51.612;5.536;2023-04-19T11:39:20;4.68;;;2.38;;
59786;SDS011;45672;51.612;5.536;2023-04-19T11:41:46;6.70;;;2.80;;
59786;SDS011;45672;51.612;5.536;2023-04-19T11:44:12;3.85;;;2.45;;
59786;SDS011;45672;51.612;5.536;2023-04-19T11:46:56;2.20;;;2.10;;
59786;SDS011;45672;51.612;5.536;2023-04-19T11:49:26;6.13;;;2.65;;
59786;SDS011;45672;51.612;5.536;2023-04-19T11:51:57;6.30;;;2.60;;
59786;SDS011;45672;51.612;5.536;2023-04-19T11:54:23;3.55;;;2.17;;
59786;SDS011;45672;51.612;5.536;2023-04-19T11:56:56;3.33;;;2.30;;
59786;SDS011;45672;51.612;5.536;2023-04-19T11:59:22;4.60;;;2.42;;
59786;SDS011;45672;51.612;5.536;2023-04-19T12:01:47;8.35;;;2.80;;
59786;SDS011;45672;51.612;5.536;2023-04-19T12:04:12;10.80;;;2.70;;
59786;SDS011;45672;51.612;5.536;2023-04-19T12:06:38;9.30;;;2.85;;
59786;SDS011;45672;51.612;5.536;2023-04-19T12:09:06;4.07;;;2.15;;
59786;SDS011;45672;51.612;5.536;2023-04-19T12:11:43;5.68;;;2.72;;
59786;SDS011;45672;51.612;5.536;2023-04-19T12:14:13;3.03;;;2.70;;
59786;SDS011;45672;51.612;5.536;2023-04-19T12:16:39;4.38;;;2.53;;
59786;SDS011;45672;51.612;5.536;2023-04-19T12:19:15;4.82;;;2.45;;
59786;SDS011;45672;51.612;5.536;2023-04-19T12:21:44;3.50;;;2.47;;
59786;SDS011;45672;51.612;5.536;2023-04-19T12:24:10;4.80;;;2.25;;
59786;SDS011;45672;51.612;5.536;2023-04-19T12:26:51;3.40;;;2.35;;
59786;SDS011;45672;51.612;5.536;2023-04-19T12:29:19;2.80;;;2.60;;
59786;SDS011;45672;51.612;5.536;2023-04-19T12:31:44;6.35;;;2.63;;
59786;SDS011;45672;51.612;5.536;2023-04-19T12:34:09;4.80;;;2.40;;
59786;SDS011;45672;51.612;5.536;2023-04-19T12:36:35;3.63;;;2.50;;
59786;SDS011;45672;51.612;5.536;2023-04-19T12:39:00;3.65;;;2.50;;
59786;SDS011;45672;51.612;5.536;2023-04-19T12:41:25;3.50;;;2.75;;
59786;SDS011;45672;51.612;5.536;2023-04-19T12:43:50;3.90;;;3.05;;
59786;SDS011;45672;51.612;5.536;2023-04-19T12:46:16;3.55;;;2.63;;
59786;SDS011;45672;51.612;5.536;2023-04-19T12:48:41;4.15;;;2.70;;
59786;SDS011;45672;51.612;5.536;2023-04-19T12:51:06;4.05;;;2.70;;
59786;SDS011;45672;51.612;5.536;2023-04-19T12:53:32;4.78;;;2.53;;
59786;SDS011;45672;51.612;5.536;2023-04-19T12:55:58;10.07;;;2.50;;
59786;SDS011;45672;51.612;5.536;2023-04-19T12:58:23;4.47;;;2.83;;
59786;SDS011;45672;51.612;5.536;2023-04-19T13:00:49;5.68;;;2.65;;
59786;SDS011;45672;51.612;5.536;2023-04-19T13:03:14;2.63;;;2.42;;
59786;SDS011;45672;51.612;5.536;2023-04-19T13:05:40;3.30;;;2.80;;
59786;SDS011;45672;51.612;5.536;2023-04-19T13:08:05;2.22;;;2.03;;
59786;SDS011;45672;51.612;5.536;2023-04-19T13:10:30;5.20;;;2.63;;
59786;SDS011;45672;51.612;5.536;2023-04-19T13:12:56;6.80;;;2.38;;
59786;SDS011;45672;51.612;5.536;2023-04-19T13:15:23;3.70;;;2.60;;
59786;SDS011;45672;51.612;5.536;2023-04-19T13:17:48;6.72;;;2.85;;
59786;SDS011;45672;51.612;5.536;2023-04-19T13:20:14;3.15;;;2.65;;
59786;SDS011;45672;51.612;5.536;2023-04-19T13:22:39;3.00;;;2.70;;
59786;SDS011;45672;51.612;5.536;2023-04-19T13:25:04;9.73;;;2.70;;
59786;SDS011;45672;51.612;5.536;2023-04-19T13:27:30;3.90;;;2.55;;
59786;SDS011;45672;51.612;5.536;2023-04-19T13:29:55;3.05;;;2.50;;
59786;SDS011;45672;51.612;5.536;2023-04-19T13:32:21;7.38;;;2.40;;
59786;SDS011;45672;51.612;5.536;2023-04-19T13:34:47;2.70;;;2.50;;
59786;SDS011;45672;51.612;5.536;2023-04-19T13:37:12;2.50;;;2.30;;
59786;SDS011;45672;51.612;5.536;2023-04-19T13:39:38;6.85;;;2.60;;
59786;SDS011;45672;51.612;5.536;2023-04-19T13:42:04;3.83;;;2.60;;
59786;SDS011;45672;51.612;5.536;2023-04-19T13:44:30;3.20;;;2.90;;
59786;SDS011;45672;51.612;5.536;2023-04-19T13:46:55;10.13;;;2.95;;
59786;SDS011;45672;51.612;5.536;2023-04-19T13:49:21;3.67;;;3.00;;
59786;SDS011;45672;51.612;5.536;2023-04-19T13:51:46;4.32;;;3.17;;
59786;SDS011;45672;51.612;5.536;2023-04-19T13:54:12;4.38;;;3.00;;
59786;SDS011;45672;51.612;5.536;2023-04-19T13:56:37;3.97;;;2.75;;
59786;SDS011;45672;51.612;5.536;2023-04-19T13:59:02;11.50;;;3.10;;
59786;SDS011;45672;51.612;5.536;2023-04-19T14:01:28;7.05;;;2.97;;
59786;SDS011;45672;51.612;5.536;2023-04-19T14:03:53;4.40;;;2.80;;
59786;SDS011;45672;51.612;5.536;2023-04-19T14:06:18;4.97;;;2.80;;
59786;SDS011;45672;51.612;5.536;2023-04-19T14:08:44;3.33;;;3.03;;
59786;SDS011;45672;51.612;5.536;2023-04-19T14:11:09;5.55;;;3.10;;
59786;SDS011;45672;51.612;5.536;2023-04-19T14:13:35;6.55;;;3.22;;
59786;SDS011;45672;51.612;5.536;2023-04-19T14:16:00;4.43;;;3.35;;
59786;SDS011;45672;51.612;5.536;2023-04-19T14:18:26;4.65;;;2.95;;
59786;SDS011;45672;51.612;5.536;2023-04-19T14:20:51;4.78;;;2.97;;
59786;SDS011;45672;51.612;5.536;2023-04-19T14:23:17;4.90;;;2.92;;
59786;SDS011;45672;51.612;5.536;2023-04-19T14:25:42;4.28;;;3.15;;
59786;SDS011;45672;51.612;5.536;2023-04-19T14:28:07;5.47;;;3.33;;
59786;SDS011;45672;51.612;5.536;2023-04-19T14:30:32;7.28;;;3.35;;
59786;SDS011;45672;51.612;5.536;2023-04-19T14:32:58;4.03;;;3.60;;
59786;SDS011;45672;51.612;5.536;2023-04-19T14:35:23;3.70;;;3.40;;
59786;SDS011;45672;51.612;5.536;2023-04-19T14:37:49;6.00;;;3.70;;
59786;SDS011;45672;51.612;5.536;2023-04-19T14:40:14;5.38;;;3.90;;
59786;SDS011;45672;51.612;5.536;2023-04-19T14:42:41;4.53;;;3.33;;
59786;SDS011;45672;51.612;5.536;2023-04-19T14:45:07;4.80;;;3.63;;
59786;SDS011;45672;51.612;5.536;2023-04-19T14:47:33;3.42;;;3.13;;
59786;SDS011;45672;51.612;5.536;2023-04-19T14:49:58;6.78;;;3.78;;